BIENTÔT MET'MAP
version 2.0 !

Prévue avant fin octobre,
la nouvelle version sera
plus belle, plus complète
et hébergée sur un serveur
3 fois plus puissant...
et toujours gratuite !


Pas compatible ?
Essayez la version Mobile !

SE CONNECTER : | S'inscrire | Disclaimer | Découvrir Orbifly |
Code OACI :
LŽgende : VFR VFR Marginal IFR IFR Intensif IFR TrŽs Intensif
Visi :
Plafond :
>= 8 km
>= 3000ft
5 ˆ 8 km
1000 ˆ 3000 ft
1500m ˆ 5 km
500 ˆ 1000 ft
800 ˆ 1500m
200 ˆ 500 ft
< 800m
< 200 ft

METAR - EDDC Dresden Klotzsche - 15 Sep 2019 16:36 UTC - Data Source NOAA   



- Altitude de l'aérodrome : 755 ft
- Code IATA : DRS
- Pas de NOTAMs connus.


EDDC - Dresden Klotzsche

Dernier METAR connu : 2015/08/11 07:50 EDDC 110750Z 27008KT 230V320 CAVOK 26/12 Q1015 NOSIG
TAF TAF EDDC
Valide du 15 à 12h jusqu'au 16 à 12h UTC


151100Z 1512/1612 25007KT CAVOK
TEMPO 1603/1609 BKN010

Source NOAA


MET'MAP, la Météo Aéronautique d'un coup d'oeil ! - Copyright ORBIFLY Décembre 2007

Développement & Programmation : Alexandra Zaïnal
Co-Développement : Marc-Olivier Méhu
Soutien technique & logistique : Manuel Goepfert
Conception & Financement : Baudouin d'Aumeries